Time;durP1;ratioP1;P1;durP2;ratioP2;P2;SDS_P1;SDS_P2;PMS_P1;PMS_P2;Temp;Humidity;BMP_temperature;BMP_pressure;BME280_temperature;BME280_humidity;BME280_pressure;Samples;Min_cycle;Max_cycle;Signal;HPM_P1;HPM_P2
2022/01/19 00:01:06;;;;;;;10.05;6.80;;;24.10;70.20;;;;;;4159331;28;20069;-58
2022/01/19 00:03:29;;;;;;;13.02;6.75;;;24.20;70.20;;;;;;4159398;28;20041;-59
2022/01/19 00:05:52;;;;;;;9.80;5.93;;;24.20;70.30;;;;;;4155914;28;20037;-60
2022/01/19 00:08:21;;;;;;;9.73;5.60;;;24.20;70.20;;;;;;4154348;28;20045;-60
2022/01/19 00:10:47;;;;;;;11.48;5.55;;;24.20;70.20;;;;;;4157529;28;20523;-60
2022/01/19 00:13:11;;;;;;;8.77;4.82;;;24.20;70.10;;;;;;4159727;28;20179;-59
2022/01/19 00:15:34;;;;;;;10.82;5.00;;;24.20;70.20;;;;;;4162686;28;20060;-59
2022/01/19 00:17:59;;;;;;;9.10;5.00;;;24.10;70.10;;;;;;4160473;28;20056;-60
2022/01/19 00:20:22;;;;;;;8.32;4.43;;;24.20;70.40;;;;;;4139080;28;20040;-60
2022/01/19 00:22:45;;;;;;;9.07;4.32;;;24.20;70.40;;;;;;4152886;28;20618;-59
2022/01/19 00:25:09;;;;;;;7.35;4.18;;;24.20;70.40;;;;;;4155224;28;20107;-58
2022/01/19 00:27:32;;;;;;;10.35;4.53;;;24.20;70.40;;;;;;4153274;28;20045;-58
2022/01/19 00:29:55;;;;;;;8.82;4.43;;;24.20;70.40;;;;;;4155357;28;20068;-58
2022/01/19 00:32:19;;;;;;;5.90;3.60;;;24.20;71.00;;;;;;4150672;28;20156;-56
2022/01/19 00:34:42;;;;;;;7.20;3.63;;;24.20;70.40;;;;;;4151336;28;20065;-54
2022/01/19 00:37:05;;;;;;;6.50;3.45;;;24.20;70.40;;;;;;4150727;28;20103;-61
2022/01/19 00:39:32;;;;;;;6.53;4.07;;;24.20;70.50;;;;;;4152454;28;20052;-60
2022/01/19 00:41:56;;;;;;;6.97;3.72;;;24.20;70.50;;;;;;4152704;28;20166;-60
2022/01/19 00:44:20;;;;;;;7.55;3.00;;;24.20;70.70;;;;;;4131906;28;20049;-61
2022/01/19 00:46:42;;;;;;;;;;;24.20;70.70;;;;;;4154258;28;20079;-57
2022/01/19 00:49:06;;;;;;;5.85;3.22;;;24.20;70.60;;;;;;4154480;28;19986;-58
2022/01/19 00:51:29;;;;;;;4.83;2.97;;;24.20;70.50;;;;;;4151248;28;20044;-62
2022/01/19 00:53:51;;;;;;;7.32;2.83;;;24.20;70.50;;;;;;4152294;28;20348;-61
2022/01/19 00:56:14;;;;;;;4.30;2.70;;;24.20;70.60;;;;;;4157737;28;20103;-60
2022/01/19 00:58:37;;;;;;;5.97;2.67;;;24.20;70.60;;;;;;4159950;28;20059;-60
2022/01/19 01:01:01;;;;;;;5.75;2.55;;;24.20;70.50;;;;;;4157300;28;20037;-60
2022/01/19 01:03:24;;;;;;;6.35;2.75;;;24.20;70.50;;;;;;4157982;28;20120;-58
2022/01/19 01:05:48;;;;;;;15.40;3.22;;;24.20;70.50;;;;;;4158460;28;20037;-57
2022/01/19 01:08:12;;;;;;;13.77;2.80;;;24.20;70.40;;;;;;4161292;28;20176;-55
2022/01/19 01:10:42;;;;;;;12.65;2.70;;;24.20;70.30;;;;;;4162813;28;20069;-56
2022/01/19 01:13:29;;;;;;;16.63;3.40;;;24.20;70.40;;;;;;4162877;28;20059;-55
2022/01/19 01:18:24;;;;;;;8.75;2.58;;;24.20;70.50;;;;;;4162051;28;20102;-56
2022/01/19 01:20:54;;;;;;;5.82;2.20;;;24.20;70.60;;;;;;4137388;28;20034;-57
2022/01/19 01:23:19;;;;;;;7.03;2.50;;;24.20;70.60;;;;;;4165239;28;20075;-57
2022/01/19 01:25:42;;;;;;;5.57;2.22;;;24.20;70.60;;;;;;4135944;28;20097;-54
2022/01/19 01:28:06;;;;;;;6.15;2.60;;;24.20;70.60;;;;;;4158270;28;20057;-57
2022/01/19 01:30:29;;;;;;;9.05;2.50;;;24.20;70.70;;;;;;4167261;28;20033;-58
2022/01/19 01:32:53;;;;;;;7.18;2.42;;;24.20;70.70;;;;;;4164465;28;20053;-58
2022/01/19 01:35:16;;;;;;;7.60;2.20;;;24.20;70.80;;;;;;4158140;28;20041;-58
2022/01/19 01:37:39;;;;;;;7.15;2.30;;;24.30;70.90;;;;;;4156386;28;20042;-57
2022/01/19 01:40:04;;;;;;;7.57;2.40;;;24.30;70.80;;;;;;4157785;28;20037;-54
2022/01/19 01:42:27;;;;;;;9.30;2.50;;;24.30;70.80;;;;;;4154334;28;20565;-55
2022/01/19 01:44:52;;;;;;;7.85;2.17;;;24.30;70.60;;;;;;4148167;28;20061;-53
2022/01/19 01:47:17;;;;;;;5.68;2.05;;;24.40;70.70;;;;;;4157611;28;20053;-57
2022/01/19 01:54:44;;;;;;;4.68;1.75;;;24.40;70.50;;;;;;4156176;28;19917;-56
2022/01/19 01:57:08;;;;;;;4.70;1.90;;;24.40;70.50;;;;;;4141284;28;20148;-56
2022/01/19 01:59:34;;;;;;;11.90;2.33;;;24.40;70.60;;;;;;4148404;28;20042;-52
2022/01/19 02:01:56;;;;;;;7.60;2.00;;;24.40;70.60;;;;;;4148176;28;20175;-55
2022/01/19 02:04:23;;;;;;;6.28;1.90;;;24.40;70.70;;;;;;4133546;28;20038;-58
2022/01/19 02:07:09;;;;;;;7.82;1.98;;;24.40;70.70;;;;;;4149730;28;20072;-53
2022/01/19 02:09:36;;;;;;;7.15;2.25;;;24.40;70.60;;;;;;4154458;28;20616;-54
2022/01/19 02:23:02;;;;;;;7.95;2.08;;;24.50;70.20;;;;;;4161273;28;20049;-54
2022/01/19 02:25:31;;;;;;;10.15;2.20;;;24.60;70.30;;;;;;4138447;28;20034;-54
2022/01/19 02:41:27;;;;;;;;;;;24.70;69.70;;;;;;4159175;28;20042;-57
2022/01/19 02:43:50;;;;;;;6.05;1.67;;;24.80;69.70;;;;;;4160230;28;19913;-56
2022/01/19 02:51:36;;;;;;;9.40;1.52;;;24.80;69.40;;;;;;4173854;28;20068;-51
2022/01/19 02:53:59;;;;;;;12.55;2.05;;;24.90;69.30;;;;;;4169218;28;20064;-58
2022/01/19 02:56:30;;;;;;;4.38;1.70;;;24.80;69.10;;;;;;4172625;28;20055;-58
2022/01/19 02:59:03;;;;;;;5.20;2.05;;;24.80;69.00;;;;;;4164007;28;20053;-56
2022/01/19 03:09:24;;;;;;;4.80;1.55;;;24.90;69.30;;;;;;4158633;28;20037;-55
2022/01/19 03:11:48;;;;;;;5.05;1.35;;;24.90;69.20;;;;;;4160559;28;20506;-54
2022/01/19 03:14:12;;;;;;;4.05;1.20;;;24.90;69.20;;;;;;4170089;28;20650;-51
2022/01/19 03:16:36;;;;;;;1.58;1.10;;;24.90;69.10;;;;;;4162696;28;20758;-51
2022/01/19 03:18:59;;;;;;;2.38;0.98;;;25.00;69.20;;;;;;4165569;28;20036;-53
2022/01/19 03:21:22;;;;;;;1.90;0.83;;;25.00;69.10;;;;;;4162554;28;20037;-52
2022/01/19 03:23:46;;;;;;;2.08;0.60;;;25.00;69.10;;;;;;4146423;28;20313;-52
2022/01/19 03:26:08;;;;;;;;;;;25.00;69.00;;;;;;4153100;28;20518;-52
2022/01/19 03:28:32;;;;;;;3.10;0.77;;;25.00;69.00;;;;;;4171228;28;19913;-54
2022/01/19 03:30:55;;;;;;;1.17;0.60;;;25.10;69.00;;;;;;4169471;28;20812;-53
2022/01/19 03:33:19;;;;;;;1.15;0.60;;;25.00;69.00;;;;;;4158024;28;20124;-57
2022/01/19 03:35:43;;;;;;;;;;;25.10;69.00;;;;;;4157769;28;20038;-55
2022/01/19 03:38:08;;;;;;;3.78;0.90;;;25.10;68.90;;;;;;4156345;28;19949;-53
2022/01/19 03:40:32;;;;;;;2.20;0.82;;;25.10;68.80;;;;;;4157590;28;20045;-52
2022/01/19 03:42:55;;;;;;;2.78;0.90;;;25.10;68.80;;;;;;4156952;28;20033;-53
2022/01/19 03:45:19;;;;;;;8.07;1.27;;;25.10;68.70;;;;;;4159268;28;20041;-51
2022/01/19 03:47:47;;;;;;;2.63;1.10;;;25.10;68.70;;;;;;4155393;28;20112;-49
2022/01/19 03:50:12;;;;;;;1.52;0.57;;;25.10;68.70;;;;;;4156811;28;20544;-50
2022/01/19 03:52:35;;;;;;;5.00;0.93;;;25.10;68.70;;;;;;4155237;28;20083;-50
2022/01/19 03:54:59;;;;;;;5.20;1.23;;;25.20;68.80;;;;;;4160679;28;20120;-54
2022/01/19 03:57:22;;;;;;;4.80;0.93;;;25.20;68.80;;;;;;4161479;28;20051;-53
2022/01/19 03:59:45;;;;;;;3.95;1.60;;;25.10;68.40;;;;;;4162243;28;20742;-56
2022/01/19 04:02:08;;;;;;;10.17;2.07;;;25.10;68.30;;;;;;4161039;28;20449;-58
2022/01/19 04:09:26;;;;;;;7.60;1.70;;;25.20;68.60;;;;;;4156494;28;20025;-48
2022/01/19 04:11:49;;;;;;;;;;;25.20;68.70;;;;;;4157037;28;20048;-58
2022/01/19 04:14:27;;;;;;;4.88;1.60;;;25.20;68.80;;;;;;4160846;28;19913;-58
2022/01/19 04:17:11;;;;;;;5.68;1.77;;;25.30;68.90;;;;;;4161942;28;20120;-58
2022/01/19 04:22:06;;;;;;;5.00;1.67;;;25.20;68.70;;;;;;4156174;28;20040;-54
2022/01/19 04:24:29;;;;;;;6.40;1.67;;;25.20;68.60;;;;;;4158745;28;20038;-51
2022/01/19 04:29:34;;;;;;;6.88;2.10;;;25.30;68.90;;;;;;4163924;28;20141;-56
2022/01/19 04:31:57;;;;;;;4.55;1.55;;;25.20;68.70;;;;;;4165432;28;20040;-55
2022/01/19 04:34:21;;;;;;;6.18;2.20;;;25.30;69.00;;;;;;4156009;28;20200;-59
2022/01/19 04:45:11;;;;;;;5.18;1.77;;;25.30;69.20;;;;;;4158363;28;20132;-52
2022/01/19 05:03:42;;;;;;;3.28;1.20;;;25.50;68.90;;;;;;4150271;28;20034;-57
2022/01/19 05:06:13;;;;;;;5.63;1.45;;;25.50;68.70;;;;;;4155601;28;20549;-57
2022/01/19 05:13:39;;;;;;;2.55;1.05;;;25.50;68.60;;;;;;4156747;28;20033;-56
2022/01/19 05:16:01;;;;;;;5.25;1.65;;;25.50;68.60;;;;;;4154525;28;20056;-58
2022/01/19 05:18:24;;;;;;;5.40;1.60;;;25.40;68.40;;;;;;4149651;28;20118;-56
2022/01/19 05:20:48;;;;;;;5.18;1.38;;;25.50;68.50;;;;;;4150141;28;20053;-57
2022/01/19 05:23:09;;;;;;;;;;;25.40;68.40;;;;;;4151029;28;20422;-49
2022/01/19 05:25:32;;;;;;;4.55;1.20;;;25.40;68.40;;;;;;4148228;28;20420;-56
2022/01/19 05:27:54;;;;;;;6.45;1.60;;;25.40;68.40;;;;;;4150024;28;20045;-57
2022/01/19 05:30:18;;;;;;;5.82;1.17;;;25.40;68.40;;;;;;4147864;28;20104;-57
2022/01/19 05:32:41;;;;;;;4.63;1.40;;;25.40;68.40;;;;;;4147677;28;20053;-57
2022/01/19 05:35:04;;;;;;;4.03;1.07;;;25.40;68.30;;;;;;4140359;28;20040;-52
2022/01/19 05:37:26;;;;;;;3.55;1.40;;;25.40;68.30;;;;;;4151759;28;20051;-55
2022/01/19 05:39:49;;;;;;;7.63;1.73;;;25.40;68.20;;;;;;4157995;28;20057;-56
2022/01/19 05:42:15;;;;;;;5.50;1.20;;;25.40;68.30;;;;;;4153204;28;20110;-57
2022/01/19 05:44:37;;;;;;;4.90;1.60;;;25.40;68.20;;;;;;4147743;28;20124;-57
2022/01/19 05:47:00;;;;;;;4.18;1.23;;;25.50;68.20;;;;;;4148054;28;20466;-59
2022/01/19 05:49:23;;;;;;;4.63;1.35;;;25.40;68.00;;;;;;4155619;28;20049;-57
2022/01/19 05:51:47;;;;;;;6.32;1.90;;;25.50;67.90;;;;;;4151105;28;20045;-56
2022/01/19 05:54:11;;;;;;;6.03;1.67;;;25.50;67.60;;;;;;4150474;28;20042;-56
2022/01/19 05:56:35;;;;;;;6.00;1.42;;;25.50;67.60;;;;;;4140689;28;20045;-52
2022/01/19 05:58:58;;;;;;;5.40;1.25;;;25.50;67.70;;;;;;4142598;28;20885;-56
2022/01/19 06:01:22;;;;;;;5.60;1.60;;;25.50;67.70;;;;;;4149355;28;20450;-58
2022/01/19 06:03:44;;;;;;;4.80;1.45;;;25.50;67.70;;;;;;4151358;28;20099;-55
2022/01/19 06:06:08;;;;;;;3.63;1.37;;;25.50;67.70;;;;;;4148371;28;20057;-56
2022/01/19 06:08:42;;;;;;;6.45;1.45;;;25.40;66.90;;;;;;4149849;28;20660;-55
2022/01/19 06:11:06;;;;;;;4.75;1.77;;;25.40;67.10;;;;;;4145945;28;20050;-58
2022/01/19 06:13:29;;;;;;;5.03;1.65;;;25.40;66.90;;;;;;4158435;28;20066;-54
2022/01/19 06:15:54;;;;;;;4.10;1.67;;;25.40;66.80;;;;;;4157654;28;20384;-57
2022/01/19 06:18:18;;;;;;;6.82;1.92;;;25.30;66.70;;;;;;4153668;28;20263;-58
2022/01/19 06:20:42;;;;;;;5.65;1.98;;;25.30;66.60;;;;;;4150907;28;20423;-54
2022/01/19 06:23:06;;;;;;;5.72;1.95;;;25.30;66.60;;;;;;4148909;28;20120;-56
2022/01/19 06:25:29;;;;;;;7.93;1.80;;;25.30;66.70;;;;;;4156496;28;20692;-59
2022/01/19 06:27:52;;;;;;;6.50;2.05;;;25.30;66.70;;;;;;4158592;28;20443;-58
2022/01/19 06:30:15;;;;;;;7.50;2.20;;;25.20;66.70;;;;;;4152010;28;20037;-58
2022/01/19 06:32:39;;;;;;;7.72;2.58;;;25.20;67.40;;;;;;4154877;28;20441;-58
2022/01/19 06:35:02;;;;;;;11.57;2.25;;;25.20;66.80;;;;;;4149959;28;20040;-58
2022/01/19 06:37:26;;;;;;;5.80;2.13;;;25.20;66.90;;;;;;4153504;28;20087;-56
2022/01/19 06:39:48;;;;;;;;;;;25.20;67.00;;;;;;4157538;28;20033;-56
2022/01/19 06:42:12;;;;;;;7.97;2.38;;;25.20;67.20;;;;;;4148559;28;20015;-55
2022/01/19 06:44:36;;;;;;;7.75;2.17;;;25.10;67.00;;;;;;4152275;28;20045;-54
2022/01/19 06:47:00;;;;;;;9.18;2.05;;;25.10;67.00;;;;;;4144996;28;20482;-59
2022/01/19 06:49:24;;;;;;;4.15;1.75;;;25.10;67.00;;;;;;4152973;28;20130;-58
2022/01/19 06:51:48;;;;;;;9.05;2.05;;;25.10;67.00;;;;;;4148056;28;20479;-58
2022/01/19 06:54:11;;;;;;;;;;;25.00;66.90;;;;;;4151796;28;20116;-57
2022/01/19 06:56:37;;;;;;;8.23;2.10;;;25.00;67.20;;;;;;4154039;28;20095;-58
2022/01/19 06:59:01;;;;;;;5.00;1.67;;;25.00;66.90;;;;;;4155226;28;21378;-58
2022/01/19 07:01:24;;;;;;;4.30;1.65;;;25.00;67.00;;;;;;4157454;28;20054;-58
2022/01/19 07:03:48;;;;;;;12.07;2.22;;;25.00;67.00;;;;;;4158546;28;20423;-57
2022/01/19 07:06:11;;;;;;;6.13;1.75;;;24.90;67.00;;;;;;4157573;28;20068;-58
2022/01/19 07:08:35;;;;;;;4.85;1.40;;;24.90;67.10;;;;;;4136668;28;20113;-57
2022/01/19 07:11:07;;;;;;;;;;;24.90;67.10;;;;;;4158701;28;20045;-57
2022/01/19 07:13:30;;;;;;;6.07;2.17;;;24.90;67.30;;;;;;4153218;28;20032;-58
2022/01/19 07:15:52;;;;;;;3.13;1.55;;;24.80;67.70;;;;;;4155214;28;20099;-56
2022/01/19 07:18:15;;;;;;;6.75;1.90;;;24.90;67.20;;;;;;4155713;28;20172;-58
2022/01/19 07:20:38;;;;;;;5.68;2.22;;;24.80;67.30;;;;;;4153793;28;20029;-57
2022/01/19 07:23:01;;;;;;;5.53;2.08;;;24.80;67.20;;;;;;4157489;28;20842;-55
2022/01/19 07:25:25;;;;;;;7.57;1.88;;;24.80;67.20;;;;;;4158074;28;20040;-56
2022/01/19 07:27:48;;;;;;;6.97;1.80;;;24.80;67.30;;;;;;4157839;28;20102;-56
2022/01/19 07:30:13;;;;;;;7.50;2.05;;;24.80;67.20;;;;;;4152796;28;20067;-55
2022/01/19 07:32:36;;;;;;;4.50;1.98;;;24.80;67.10;;;;;;4154860;28;20049;-58
2022/01/19 07:35:00;;;;;;;5.35;1.67;;;24.80;67.10;;;;;;4157541;28;20046;-58
2022/01/19 07:37:23;;;;;;;4.72;1.70;;;24.80;67.10;;;;;;4161518;28;20041;-58
2022/01/19 07:39:46;;;;;;;4.93;1.83;;;24.70;67.00;;;;;;4137034;28;20049;-57
2022/01/19 07:42:10;;;;;;;4.72;1.70;;;24.70;67.00;;;;;;4155504;28;20454;-61
2022/01/19 07:44:33;;;;;;;4.38;1.60;;;24.70;67.00;;;;;;4156468;28;20135;-59
2022/01/19 07:46:59;;;;;;;4.32;1.67;;;24.70;67.00;;;;;;4146426;28;20131;-58
2022/01/19 07:49:23;;;;;;;6.30;1.83;;;24.70;67.00;;;;;;4157215;28;20037;-59
2022/01/19 07:51:45;;;;;;;;;;;24.70;66.90;;;;;;4155475;28;20119;-59
2022/01/19 07:54:09;;;;;;;7.47;2.15;;;24.70;67.20;;;;;;4154131;28;19956;-58
2022/01/19 07:56:32;;;;;;;4.88;1.65;;;24.60;67.00;;;;;;4162034;28;20116;-58
2022/01/19 07:58:56;;;;;;;7.25;1.92;;;24.60;67.00;;;;;;4154520;28;20065;-59
2022/01/19 08:01:20;;;;;;;7.85;2.10;;;24.60;66.90;;;;;;4149291;28;20083;-60
2022/01/19 08:03:44;;;;;;;15.52;2.20;;;24.60;67.00;;;;;;4155422;28;20068;-57
2022/01/19 08:06:07;;;;;;;9.20;2.15;;;24.50;66.90;;;;;;4153605;28;20086;-57
2022/01/19 08:08:31;;;;;;;8.48;2.40;;;24.50;67.00;;;;;;4154783;28;20040;-58
2022/01/19 08:10:53;;;;;;;;;;;24.50;67.10;;;;;;4156913;28;20120;-57
2022/01/19 08:13:17;;;;;;;7.15;2.00;;;24.50;67.10;;;;;;4156843;28;19916;-50
2022/01/19 08:15:41;;;;;;;9.27;2.45;;;24.50;67.10;;;;;;4156976;28;20037;-57
2022/01/19 08:18:04;;;;;;;6.35;2.03;;;24.40;67.00;;;;;;4156775;28;20634;-61
2022/01/19 08:20:27;;;;;;;9.55;2.72;;;24.40;67.00;;;;;;4158338;28;20038;-56
2022/01/19 08:22:51;;;;;;;4.70;1.90;;;24.40;67.00;;;;;;4159231;28;20048;-58
2022/01/19 08:25:14;;;;;;;6.30;2.17;;;24.40;67.10;;;;;;4134747;28;20108;-58
2022/01/19 08:27:38;;;;;;;6.28;2.22;;;24.40;67.10;;;;;;4158070;28;20043;-58
2022/01/19 08:30:02;;;;;;;5.47;1.77;;;24.40;67.00;;;;;;4159666;28;20057;-58
2022/01/19 08:32:24;;;;;;;;;;;24.40;67.00;;;;;;4158027;28;20380;-58
2022/01/19 08:34:47;;;;;;;6.63;2.00;;;24.40;67.20;;;;;;4159158;28;19921;-58
2022/01/19 08:37:14;;;;;;;6.00;1.88;;;24.40;67.10;;;;;;4158398;28;20041;-59
2022/01/19 08:39:39;;;;;;;15.73;2.85;;;24.30;67.00;;;;;;4155492;28;20029;-58
2022/01/19 08:42:02;;;;;;;8.43;2.30;;;24.30;67.50;;;;;;4142575;28;20068;-58
2022/01/19 08:44:25;;;;;;;10.57;2.55;;;24.30;67.00;;;;;;4157636;28;20040;-58
2022/01/19 08:46:49;;;;;;;7.90;1.73;;;24.30;66.80;;;;;;4164888;28;20048;-58
2022/01/19 08:49:13;;;;;;;5.68;1.83;;;24.20;67.00;;;;;;4156145;28;20041;-57
2022/01/19 08:51:37;;;;;;;7.80;2.42;;;24.30;67.00;;;;;;4159982;28;20033;-55
2022/01/19 08:54:00;;;;;;;10.07;2.10;;;24.20;67.00;;;;;;4165230;28;20156;-57
2022/01/19 08:56:23;;;;;;;5.47;1.95;;;24.20;66.80;;;;;;4160580;28;20109;-57
2022/01/19 08:58:46;;;;;;;6.15;1.77;;;24.20;66.80;;;;;;4154563;28;20644;-53
2022/01/19 09:01:10;;;;;;;8.00;2.47;;;24.20;66.90;;;;;;4160943;28;20185;-56
2022/01/19 09:03:33;;;;;;;6.10;2.10;;;24.20;66.70;;;;;;4156443;28;20059;-57
2022/01/19 09:05:56;;;;;;;7.65;2.38;;;24.20;66.80;;;;;;4136609;28;20034;-55
2022/01/19 09:08:19;;;;;;;6.57;1.88;;;24.20;66.70;;;;;;4153180;28;20052;-59
2022/01/19 09:10:42;;;;;;;6.85;2.22;;;24.20;66.90;;;;;;4156642;28;20041;-54
2022/01/19 09:13:06;;;;;;;5.97;2.05;;;24.20;66.70;;;;;;4153172;28;20061;-56
2022/01/19 09:15:29;;;;;;;7.47;2.37;;;24.20;66.80;;;;;;4152347;28;20052;-55
2022/01/19 09:17:53;;;;;;;8.50;2.30;;;24.20;66.70;;;;;;4156383;28;20628;-54
2022/01/19 09:20:18;;;;;;;6.10;1.80;;;24.10;66.80;;;;;;4156909;28;20506;-58
2022/01/19 09:22:41;;;;;;;6.28;1.92;;;24.20;66.90;;;;;;4154978;28;20123;-58
2022/01/19 09:25:06;;;;;;;4.35;1.45;;;24.10;66.70;;;;;;4156458;28;20041;-56
2022/01/19 09:27:29;;;;;;;5.78;1.67;;;24.10;66.70;;;;;;4156860;28;20099;-54
2022/01/19 09:29:53;;;;;;;7.20;2.30;;;24.10;66.70;;;;;;4156665;28;20145;-58
2022/01/19 09:32:16;;;;;;;8.23;2.40;;;24.10;66.40;;;;;;4161639;28;20041;-55
2022/01/19 09:34:43;;;;;;;6.65;2.25;;;24.10;66.20;;;;;;4156944;28;20033;-58
2022/01/19 09:37:06;;;;;;;6.50;2.10;;;24.10;66.10;;;;;;4133706;28;20042;-60
2022/01/19 09:39:29;;;;;;;6.15;1.95;;;24.10;66.10;;;;;;4156695;28;20427;-60
2022/01/19 09:41:54;;;;;;;5.18;2.20;;;24.10;66.20;;;;;;4159903;28;20139;-59
2022/01/19 09:44:19;;;;;;;7.97;2.50;;;24.10;66.30;;;;;;4152745;28;20088;-58
2022/01/19 09:46:43;;;;;;;6.88;2.20;;;24.00;66.20;;;;;;4154030;28;20052;-58
2022/01/19 09:49:07;;;;;;;6.93;2.10;;;24.00;66.20;;;;;;4159838;28;20502;-59
2022/01/19 09:51:31;;;;;;;6.63;2.25;;;24.00;65.80;;;;;;4155312;28;20578;-58
2022/01/19 09:53:55;;;;;;;8.93;2.42;;;24.00;66.10;;;;;;4157221;28;20852;-59
2022/01/19 09:56:20;;;;;;;7.90;2.45;;;24.00;65.80;;;;;;4155205;28;20091;-59
2022/01/19 09:58:43;;;;;;;10.43;2.47;;;24.00;65.70;;;;;;4152697;28;20057;-57
2022/01/19 10:01:09;;;;;;;11.80;2.53;;;24.00;65.50;;;;;;4157936;28;20443;-58
2022/01/19 10:03:34;;;;;;;6.30;2.13;;;24.00;64.60;;;;;;4156838;28;20029;-58
2022/01/19 10:06:16;;;;;;;6.57;2.22;;;23.90;65.20;;;;;;4153614;28;20516;-58
2022/01/19 10:08:42;;;;;;;7.40;2.38;;;23.90;65.70;;;;;;4157469;28;20037;-55
2022/01/19 10:11:15;;;;;;;7.18;1.80;;;23.90;65.50;;;;;;4156424;28;20063;-57
2022/01/19 10:19:25;;;;;;;10.15;2.78;;;23.90;65.10;;;;;;4145264;28;20129;-58
2022/01/19 10:22:06;;;;;;;7.82;1.90;;;23.80;65.20;;;;;;4141785;28;20052;-58
2022/01/19 10:24:37;;;;;;;5.95;2.20;;;23.80;65.50;;;;;;4154418;28;20079;-52
2022/01/19 10:27:31;;;;;;;6.72;1.83;;;23.80;65.00;;;;;;4153146;28;20339;-58
2022/01/19 10:29:57;;;;;;;7.85;2.33;;;23.80;65.40;;;;;;4152093;28;20065;-56
2022/01/19 10:32:25;;;;;;;5.13;1.80;;;23.80;65.40;;;;;;4152202;28;20131;-58
2022/01/19 10:34:48;;;;;;;6.15;1.65;;;23.80;65.30;;;;;;4153471;28;20112;-59
2022/01/19 10:37:11;;;;;;;5.20;1.58;;;23.80;65.20;;;;;;4161460;28;20196;-58
2022/01/19 10:39:52;;;;;;;8.00;1.80;;;23.80;65.20;;;;;;4156975;28;20041;-59
2022/01/19 10:42:20;;;;;;;5.60;1.70;;;23.80;65.40;;;;;;4153485;28;20779;-57
2022/01/19 10:44:45;;;;;;;7.10;1.60;;;23.80;65.30;;;;;;4156844;28;21190;-58
2022/01/19 10:47:10;;;;;;;5.30;1.70;;;23.80;65.00;;;;;;4149419;28;20575;-57
2022/01/19 10:49:54;;;;;;;8.15;2.22;;;23.80;64.70;;;;;;4146293;28;20044;-58
2022/01/19 10:52:47;;;;;;;8.27;2.03;;;23.80;65.20;;;;;;4154559;28;20128;-54
2022/01/19 10:55:14;;;;;;;3.85;1.90;;;23.80;64.70;;;;;;4152864;28;20092;-57
2022/01/19 10:57:42;;;;;;;3.63;1.67;;;23.70;64.10;;;;;;4158697;28;20048;-54
2022/01/19 11:00:36;;;;;;;6.63;2.30;;;23.70;63.90;;;;;;4159030;28;20439;-51
2022/01/19 11:03:23;;;;;;;11.93;2.45;;;23.70;63.90;;;;;;4154312;28;20047;-50
2022/01/19 11:05:54;;;;;;;4.40;1.70;;;23.70;64.00;;;;;;4157165;28;20068;-54
2022/01/19 11:08:19;;;;;;;7.13;2.15;;;23.60;63.70;;;;;;4152634;28;20473;-53
2022/01/19 11:10:48;;;;;;;4.90;1.70;;;23.60;63.50;;;;;;4154304;28;20095;-56
2022/01/19 11:13:14;;;;;;;5.18;2.20;;;23.60;63.50;;;;;;4156874;28;20156;-54
2022/01/19 11:15:38;;;;;;;5.95;1.90;;;23.60;63.80;;;;;;4148753;28;20044;-54
2022/01/19 11:18:01;;;;;;;6.43;2.15;;;23.60;63.80;;;;;;4153814;28;20045;-52
2022/01/19 11:20:26;;;;;;;5.57;1.88;;;23.60;63.80;;;;;;4155878;28;20041;-54
2022/01/19 11:23:19;;;;;;;7.53;2.33;;;23.50;63.90;;;;;;4158351;28;20037;-54
2022/01/19 11:26:07;;;;;;;4.25;1.10;;;23.50;64.30;;;;;;4159063;28;20048;-51
2022/01/19 11:28:36;;;;;;;4.95;1.60;;;23.50;64.50;;;;;;4157323;28;20121;-54
2022/01/19 11:31:01;;;;;;;5.25;1.75;;;23.50;64.30;;;;;;4157392;28;20216;-56
2022/01/19 11:33:26;;;;;;;6.40;1.77;;;23.50;64.30;;;;;;4156530;28;20151;-54
2022/01/19 11:35:49;;;;;;;5.05;1.90;;;23.50;64.50;;;;;;4158550;28;20060;-54
2022/01/19 11:38:46;;;;;;;5.32;1.85;;;23.50;64.40;;;;;;4162533;28;20830;-53
2022/01/19 11:41:10;;;;;;;7.85;1.58;;;23.50;64.70;;;;;;4158073;28;20680;-56
2022/01/19 11:43:34;;;;;;;7.05;1.92;;;23.50;64.60;;;;;;4152753;28;20674;-54
2022/01/19 11:46:03;;;;;;;5.78;2.15;;;23.50;64.60;;;;;;4157638;28;20528;-57
2022/01/19 11:48:30;;;;;;;4.82;1.40;;;23.50;64.50;;;;;;4163652;28;20041;-53
2022/01/19 11:51:07;;;;;;;6.20;1.30;;;23.50;64.60;;;;;;4158003;28;20037;-56
2022/01/19 11:53:31;;;;;;;4.60;1.58;;;23.50;64.80;;;;;;4160215;28;20049;-54
2022/01/19 11:56:06;;;;;;;7.72;1.65;;;23.40;64.80;;;;;;4160478;28;20450;-57
2022/01/19 11:58:29;;;;;;;6.30;2.00;;;23.40;64.80;;;;;;4158032;28;20526;-57
2022/01/19 12:00:56;;;;;;;6.28;1.50;;;23.40;64.70;;;;;;4155355;28;20069;-58
2022/01/19 12:03:39;;;;;;;7.28;1.67;;;23.50;64.90;;;;;;4158588;28;20152;-59
2022/01/19 12:06:03;;;;;;;6.20;1.85;;;23.50;64.90;;;;;;4158037;28;20037;-59
2022/01/19 12:08:33;;;;;;;5.43;1.55;;;23.50;64.80;;;;;;4157007;28;20112;-57
2022/01/19 12:11:22;;;;;;;3.70;1.48;;;23.50;64.90;;;;;;4160545;28;20504;-57
2022/01/19 12:14:14;;;;;;;13.90;1.90;;;23.50;65.00;;;;;;4159980;28;20048;-54
2022/01/19 12:16:53;;;;;;;7.00;1.67;;;23.50;64.90;;;;;;4158670;28;20041;-53
2022/01/19 12:19:20;;;;;;;7.95;1.67;;;23.50;64.90;;;;;;4166723;28;20056;-50
2022/01/19 12:22:06;;;;;;;4.97;1.67;;;23.50;64.50;;;;;;4160916;28;20052;-52
2022/01/19 12:24:32;;;;;;;9.40;2.22;;;23.40;65.30;;;;;;4159882;28;20048;-54
2022/01/19 12:27:01;;;;;;;10.57;1.85;;;23.40;64.60;;;;;;4157895;28;20041;-52
2022/01/19 12:29:37;;;;;;;14.40;1.75;;;23.40;64.60;;;;;;4162150;28;20448;-53
2022/01/19 12:32:01;;;;;;;6.18;1.38;;;23.40;64.70;;;;;;4159517;28;20072;-51
2022/01/19 12:34:26;;;;;;;5.75;1.90;;;23.40;64.40;;;;;;4162288;28;20112;-48
2022/01/19 12:36:58;;;;;;;5.88;2.10;;;23.40;64.40;;;;;;4161178;28;20387;-58
2022/01/19 12:39:43;;;;;;;6.68;1.90;;;23.40;64.00;;;;;;4166214;28;20780;-53
2022/01/19 12:42:16;;;;;;;6.43;1.35;;;23.40;64.50;;;;;;4158945;28;20072;-54
2022/01/19 12:44:50;;;;;;;5.78;1.42;;;23.40;64.50;;;;;;4161217;28;20490;-57
2022/01/19 12:47:31;;;;;;;11.65;2.22;;;23.40;64.20;;;;;;4168471;28;20102;-59
2022/01/19 12:49:57;;;;;;;15.82;2.95;;;23.40;64.20;;;;;;4169929;28;20087;-50
2022/01/19 12:52:26;;;;;;;6.82;1.90;;;23.30;64.20;;;;;;4178175;28;20045;-50
2022/01/19 12:54:52;;;;;;;4.60;1.77;;;23.40;64.30;;;;;;4167872;28;20153;-50
2022/01/19 12:57:16;;;;;;;5.82;1.20;;;23.30;64.20;;;;;;4167801;28;20252;-49
2022/01/19 12:59:39;;;;;;;;;;;23.30;64.40;;;;;;4162859;28;20095;-56
2022/01/19 13:02:03;;;;;;;8.77;1.73;;;23.30;64.60;;;;;;4170483;28;19916;-50
2022/01/19 13:04:30;;;;;;;5.25;1.70;;;23.30;64.40;;;;;;4179009;28;20045;-57
2022/01/19 13:06:55;;;;;;;6.28;1.98;;;23.30;64.10;;;;;;4163918;28;20039;-53
2022/01/19 13:09:27;;;;;;;6.65;1.85;;;23.30;64.30;;;;;;4172693;28;20116;-57
2022/01/19 13:11:52;;;;;;;2.25;1.30;;;23.30;64.30;;;;;;4176312;28;20204;-52
2022/01/19 13:14:17;;;;;;;4.40;1.23;;;23.30;64.30;;;;;;4153373;28;20049;-49
2022/01/19 13:16:49;;;;;;;4.88;1.63;;;23.30;64.50;;;;;;4170324;28;20128;-57
2022/01/19 13:19:17;;;;;;;3.33;1.30;;;23.30;64.60;;;;;;4150142;28;20045;-52
2022/01/19 13:21:43;;;;;;;6.53;1.88;;;23.30;64.60;;;;;;4153418;28;20039;-56
2022/01/19 13:24:16;;;;;;;9.32;1.98;;;23.30;64.60;;;;;;4157798;28;20042;-57
2022/01/19 13:27:05;;;;;;;11.95;1.80;;;23.30;64.60;;;;;;4152999;28;20149;-57
2022/01/19 13:29:37;;;;;;;3.92;1.58;;;23.30;64.70;;;;;;4159944;28;20041;-58
2022/01/19 13:32:03;;;;;;;7.32;1.90;;;23.30;64.60;;;;;;4165804;28;20114;-59
2022/01/19 13:34:28;;;;;;;4.13;1.40;;;23.30;64.40;;;;;;4160750;28;20425;-57
2022/01/19 13:36:59;;;;;;;5.10;1.40;;;23.30;64.50;;;;;;4161545;28;20047;-56
2022/01/19 13:39:24;;;;;;;12.05;2.00;;;23.30;64.70;;;;;;4165339;28;20652;-57
2022/01/19 13:41:51;;;;;;;5.53;1.70;;;23.30;64.70;;;;;;4169218;28;20056;-58
2022/01/19 13:44:21;;;;;;;4.82;1.80;;;23.30;64.60;;;;;;4170143;28;20441;-58
2022/01/19 13:46:44;;;;;;;4.15;1.48;;;23.30;64.70;;;;;;4157435;28;20045;-57
2022/01/19 13:49:09;;;;;;;7.97;1.52;;;23.30;64.60;;;;;;4165401;28;20487;-57
2022/01/19 13:51:37;;;;;;;4.60;1.48;;;23.20;64.70;;;;;;4168973;28;20049;-58
2022/01/19 13:54:06;;;;;;;5.57;1.60;;;23.20;64.60;;;;;;4156038;28;20069;-57
2022/01/19 13:56:42;;;;;;;3.95;1.50;;;23.30;64.70;;;;;;4160136;28;20467;-58
2022/01/19 13:59:16;;;;;;;5.53;1.45;;;23.30;64.70;;;;;;4160717;28;20530;-53
2022/01/19 14:02:01;;;;;;;5.72;1.75;;;23.20;64.70;;;;;;4169714;28;20320;-57
2022/01/19 14:04:27;;;;;;;4.35;1.38;;;23.20;64.60;;;;;;4168702;28;20075;-55
2022/01/19 14:06:50;;;;;;;5.50;1.48;;;23.20;64.70;;;;;;4175508;28;20107;-57
2022/01/19 14:09:18;;;;;;;3.53;1.48;;;23.20;64.40;;;;;;4168478;28;20457;-58
2022/01/19 14:11:44;;;;;;;2.78;1.38;;;23.20;64.50;;;;;;4166984;28;20471;-54
2022/01/19 14:14:14;;;;;;;3.65;1.70;;;23.20;64.40;;;;;;4158254;28;20569;-57
2022/01/19 14:16:49;;;;;;;5.72;1.52;;;23.20;64.30;;;;;;4173314;28;20481;-57